createdAt,value
2024-03-16T00:00:54.703Z,96415.22
2024-03-16T00:02:56.490Z,96402.03
2024-03-16T00:04:58.186Z,96426.13
2024-03-16T00:06:59.954Z,96410.25
2024-03-16T00:09:01.688Z,96423.56
2024-03-16T00:11:03.503Z,96412.75
2024-03-16T00:13:05.323Z,96406.34
2024-03-16T00:15:07.309Z,96412.66
2024-03-16T00:17:09.000Z,96415.69
2024-03-16T00:19:10.742Z,96425.31
2024-03-16T00:21:12.468Z,96426.97
2024-03-16T00:23:14.153Z,96422.00
2024-03-16T00:25:16.079Z,96413.66
2024-03-16T00:27:17.840Z,96413.94
2024-03-16T00:29:19.509Z,96421.53
2024-03-16T00:31:21.222Z,96399.91
2024-03-16T00:33:23.003Z,96413.56
2024-03-16T00:35:24.803Z,96423.00
2024-03-16T00:37:26.475Z,96410.63
2024-03-16T00:39:28.170Z,96418.50
2024-03-16T00:41:29.913Z,96387.44
2024-03-16T00:43:31.625Z,96402.47
2024-03-16T00:45:33.444Z,96407.72
2024-03-16T00:47:35.199Z,96413.09
2024-03-16T00:49:36.853Z,96411.38
2024-03-16T00:51:38.580Z,96413.84
2024-03-16T00:53:40.325Z,96424.09
2024-03-16T00:55:42.016Z,96426.41
2024-03-16T00:57:43.823Z,96423.47
2024-03-16T00:59:45.514Z,96420.81
2024-03-16T01:01:47.215Z,96419.69
2024-03-16T01:03:48.884Z,96425.84
2024-03-16T01:05:52.025Z,96422.44
2024-03-16T01:07:53.735Z,96411.41
2024-03-16T01:09:55.421Z,96418.09
2024-03-16T01:11:57.131Z,96416.41
2024-03-16T01:13:58.813Z,96408.31
2024-03-16T01:16:00.548Z,96409.06
2024-03-16T01:18:02.307Z,96381.41
2024-03-16T01:20:04.234Z,96406.97
2024-03-16T01:22:06.025Z,96410.25
2024-03-16T01:24:07.717Z,96406.00
2024-03-16T01:26:09.363Z,96407.84
2024-03-16T01:28:11.109Z,96415.00
2024-03-16T01:30:12.857Z,96408.66
2024-03-16T01:32:14.568Z,96400.25
2024-03-16T01:34:16.272Z,96399.78
2024-03-16T01:36:17.962Z,96411.97
2024-03-16T01:38:19.611Z,96409.69
2024-03-16T01:40:21.269Z,96400.69
2024-03-16T01:42:22.960Z,96409.06
2024-03-16T01:44:24.605Z,96401.00
2024-03-16T01:46:26.289Z,96400.34
2024-03-16T01:48:27.990Z,96409.91
2024-03-16T01:50:29.655Z,96407.66
2024-03-16T01:52:31.305Z,96407.56
2024-03-16T01:54:33.068Z,96410.63
2024-03-16T01:56:34.730Z,96413.81
2024-03-16T01:58:36.855Z,96393.56
2024-03-16T02:00:38.661Z,96403.34
2024-03-16T02:02:40.610Z,96406.19
2024-03-16T02:04:42.413Z,96386.22
2024-03-16T02:06:44.102Z,96360.75
2024-03-16T02:08:45.742Z,96397.66
2024-03-16T02:10:47.495Z,96381.75
2024-03-16T02:12:49.358Z,96387.59
2024-03-16T02:14:51.041Z,96387.97
2024-03-16T02:16:52.704Z,96383.13
2024-03-16T02:18:54.377Z,96393.66
2024-03-16T02:20:56.032Z,96395.19
2024-03-16T02:22:57.735Z,96411.13
2024-03-16T02:24:59.458Z,96405.44
2024-03-16T02:27:01.224Z,96406.00
2024-03-16T02:29:02.865Z,96399.41
2024-03-16T02:31:04.616Z,96410.97
2024-03-16T02:33:06.359Z,96399.41
2024-03-16T02:35:08.172Z,96403.44
2024-03-16T02:37:09.925Z,96406.84
2024-03-16T02:39:11.649Z,96392.53
2024-03-16T02:41:13.510Z,96410.50
2024-03-16T02:43:15.198Z,96416.63
2024-03-16T02:45:16.874Z,96408.97
2024-03-16T02:47:18.554Z,96403.53
2024-03-16T02:49:20.188Z,96405.09
2024-03-16T02:51:21.872Z,96415.72
2024-03-16T02:53:23.579Z,96396.94
2024-03-16T02:55:25.223Z,96406.00
2024-03-16T02:57:26.960Z,96392.09
2024-03-16T02:59:28.627Z,96394.47
2024-03-16T03:01:30.432Z,96395.75
2024-03-16T03:03:32.140Z,96396.03
2024-03-16T03:05:33.847Z,96407.38
2024-03-16T03:07:35.511Z,96404.81
2024-03-16T03:09:37.232Z,96402.53
2024-03-16T03:11:39.312Z,96417.13
2024-03-16T03:13:41.657Z,96412.50
2024-03-16T03:15:43.388Z,96384.94
2024-03-16T03:17:45.105Z,96403.91
2024-03-16T03:19:46.774Z,96405.38
2024-03-16T03:21:48.462Z,96396.56
2024-03-16T03:23:50.214Z,96400.50
2024-03-16T03:25:51.855Z,96393.66
2024-03-16T03:27:53.561Z,96394.19
2024-03-16T03:29:55.621Z,96399.78
2024-03-16T03:31:57.355Z,96406.28
2024-03-16T03:33:59.098Z,96396.66
2024-03-16T03:36:00.778Z,96408.19
2024-03-16T03:38:03.090Z,96400.50
2024-03-16T03:40:05.265Z,96411.94
2024-03-16T03:42:07.130Z,96409.47
2024-03-16T03:44:08.777Z,96409.13
2024-03-16T03:46:10.477Z,96407.47
2024-03-16T03:48:12.270Z,96422.13
2024-03-16T03:50:13.953Z,96419.47
2024-03-16T03:52:15.719Z,96418.72
2024-03-16T03:54:17.490Z,96416.06
2024-03-16T03:56:20.353Z,96412.41
2024-03-16T03:58:22.078Z,96422.56
2024-03-16T04:00:23.907Z,96424.75
2024-03-16T04:02:25.555Z,96427.53
2024-03-16T04:04:27.290Z,96428.72
2024-03-16T04:06:29.011Z,96427.41
2024-03-16T04:08:30.739Z,96433.66
2024-03-16T04:10:32.414Z,96441.34
2024-03-16T04:12:34.196Z,96436.13
2024-03-16T04:14:35.866Z,96439.78
2024-03-16T04:16:37.578Z,96438.16
2024-03-16T04:18:39.302Z,96445.81
2024-03-16T04:20:41.039Z,96433.81
2024-03-16T04:22:42.721Z,96451.13
2024-03-16T04:24:44.423Z,96460.00
2024-03-16T04:26:46.168Z,96458.56
2024-03-16T04:28:47.833Z,96456.44
2024-03-16T04:30:49.501Z,96479.44
2024-03-16T04:32:51.203Z,96517.34
2024-03-16T04:34:52.890Z,96516.59
2024-03-16T04:36:54.575Z,96496.44
2024-03-16T04:38:56.325Z,96501.00
2024-03-16T04:40:58.013Z,96492.97
2024-03-16T04:42:59.664Z,96480.84
2024-03-16T04:45:01.378Z,96483.25
2024-03-16T04:47:03.134Z,96489.53
2024-03-16T04:49:04.980Z,96484.19
2024-03-16T04:51:06.724Z,96473.22
2024-03-16T04:53:08.385Z,96483.63
2024-03-16T04:55:10.145Z,96491.41
2024-03-16T04:57:12.008Z,96484.09
2024-03-16T04:59:13.660Z,96471.75
2024-03-16T05:01:15.384Z,96476.06
2024-03-16T05:03:17.107Z,96482.66
2024-03-16T05:05:18.751Z,96484.31
2024-03-16T05:07:20.437Z,96477.34
2024-03-16T05:09:22.143Z,96477.19
2024-03-16T05:11:23.887Z,96485.44
2024-03-16T05:13:25.586Z,96484.91
2024-03-16T05:15:27.281Z,96482.56
2024-03-16T05:17:28.991Z,96477.13
2024-03-16T05:19:30.737Z,96487.38
2024-03-16T05:21:32.419Z,96479.47
2024-03-16T05:23:34.097Z,96468.81
2024-03-16T05:25:35.909Z,96483.38
2024-03-16T05:27:37.645Z,96489.28
2024-03-16T05:29:39.414Z,96463.22
2024-03-16T05:31:41.083Z,96475.00
2024-03-16T05:33:42.755Z,96487.63
2024-03-16T05:35:44.438Z,96494.47
2024-03-16T05:37:46.093Z,96484.31
2024-03-16T05:39:47.722Z,96491.50
2024-03-16T05:41:49.515Z,96496.28
2024-03-16T05:43:51.240Z,96494.44
2024-03-16T05:45:52.969Z,96500.41
2024-03-16T05:47:54.720Z,96499.41
2024-03-16T05:49:56.413Z,96511.97
2024-03-16T05:51:58.102Z,96507.72
2024-03-16T05:53:59.791Z,96515.81
2024-03-16T05:56:01.436Z,96516.44
2024-03-16T05:58:03.163Z,96519.94
2024-03-16T06:00:05.444Z,96512.22
2024-03-16T06:02:07.185Z,96518.34
2024-03-16T06:04:08.995Z,96511.22
2024-03-16T06:06:10.717Z,96527.25
2024-03-16T06:08:12.354Z,96511.31
2024-03-16T06:10:14.158Z,96522.28
2024-03-16T06:12:15.892Z,96516.97
2024-03-16T06:14:17.557Z,96525.88
2024-03-16T06:16:19.305Z,96513.31
2024-03-16T06:18:20.988Z,96523.13
2024-03-16T06:20:25.131Z,96526.06
2024-03-16T06:22:26.968Z,96543.91
2024-03-16T06:24:28.646Z,96527.97
2024-03-16T06:26:30.411Z,96538.22
2024-03-16T06:28:32.057Z,96532.28
2024-03-16T06:30:33.783Z,96548.84
2024-03-16T06:32:35.631Z,96556.47
2024-03-16T06:34:37.405Z,96562.41
2024-03-16T06:36:39.202Z,96564.06
2024-03-16T06:38:40.889Z,96559.38
2024-03-16T06:40:42.577Z,96558.19
2024-03-16T06:42:44.409Z,96567.00
2024-03-16T06:44:46.111Z,96568.09
2024-03-16T06:46:47.769Z,96569.94
2024-03-16T06:48:49.937Z,96564.09
2024-03-16T06:50:51.921Z,96570.69
2024-03-16T06:52:53.589Z,96565.63
2024-03-16T06:54:55.319Z,96574.97
2024-03-16T06:56:57.002Z,96574.59
2024-03-16T06:58:58.696Z,96581.22
2024-03-16T07:01:00.489Z,96573.16
2024-03-16T07:03:02.162Z,96577.31
2024-03-16T07:05:04.086Z,96574.25
2024-03-16T07:07:05.767Z,96588.66
2024-03-16T07:09:07.439Z,96589.59
2024-03-16T07:11:09.098Z,96595.97
2024-03-16T07:13:10.863Z,96576.66
2024-03-16T07:15:12.550Z,96597.78
2024-03-16T07:17:14.273Z,96601.09
2024-03-16T07:19:16.079Z,96594.84
2024-03-16T07:21:17.888Z,96598.81
2024-03-16T07:23:19.585Z,96595.03
2024-03-16T07:25:21.365Z,96610.38
2024-03-16T07:27:23.092Z,96609.94
2024-03-16T07:29:24.782Z,96611.38
2024-03-16T07:31:26.617Z,96623.47
2024-03-16T07:33:28.329Z,96610.84
2024-03-16T07:35:29.974Z,96611.78
2024-03-16T07:37:31.620Z,96619.22
2024-03-16T07:39:33.297Z,96623.88
2024-03-16T07:41:34.986Z,96611.25
2024-03-16T07:43:36.642Z,96636.16
2024-03-16T07:45:38.337Z,96609.41
2024-03-16T07:47:40.022Z,96633.19
2024-03-16T07:49:41.663Z,96616.47
2024-03-16T07:51:43.349Z,96620.72
2024-03-16T07:53:45.060Z,96639.28
2024-03-16T07:55:46.701Z,96637.69
2024-03-16T07:57:48.468Z,96643.81
2024-03-16T07:59:50.187Z,96653.13
2024-03-16T08:01:51.871Z,96657.50
2024-03-16T08:03:53.616Z,96654.75
2024-03-16T08:05:55.314Z,96655.84
2024-03-16T08:07:56.976Z,96664.34
2024-03-16T08:09:58.632Z,96668.88
2024-03-16T08:12:00.363Z,96675.91
2024-03-16T08:14:02.023Z,96675.66
2024-03-16T08:16:04.083Z,96674.53
2024-03-16T08:18:05.933Z,96671.78
2024-03-16T08:20:08.190Z,96669.88
2024-03-16T08:22:09.975Z,96683.44
2024-03-16T08:24:11.734Z,96691.72
2024-03-16T08:26:13.451Z,96677.50
2024-03-16T08:28:15.222Z,96694.03
2024-03-16T08:30:16.902Z,96692.59
2024-03-16T08:32:18.599Z,96698.53
2024-03-16T08:34:20.364Z,96700.19
2024-03-16T08:36:22.121Z,96709.44
2024-03-16T08:38:23.778Z,96688.53
2024-03-16T08:40:25.518Z,96708.34
2024-03-16T08:42:27.207Z,96699.06
2024-03-16T08:44:28.911Z,96707.22
2024-03-16T08:46:30.699Z,96696.88
2024-03-16T08:48:32.596Z,96701.47
2024-03-16T08:50:34.316Z,96708.78
2024-03-16T08:52:38.297Z,96710.91
2024-03-16T08:54:40.669Z,96707.88
2024-03-16T08:56:42.448Z,96711.97
2024-03-16T08:58:47.069Z,96719.16
2024-03-16T09:00:49.270Z,96713.25
2024-03-16T09:02:51.008Z,96730.94
2024-03-16T09:04:52.802Z,96735.25
2024-03-16T09:06:54.641Z,96735.56
2024-03-16T09:08:56.438Z,96727.38
2024-03-16T09:10:58.109Z,96740.50
2024-03-16T09:12:59.799Z,96744.50
2024-03-16T09:15:01.545Z,96736.69
2024-03-16T09:20:02.860Z,96743.69
2024-03-16T09:22:04.941Z,96738.22
2024-03-16T09:24:07.011Z,96746.19
2024-03-16T09:26:08.701Z,96725.63
2024-03-16T09:28:10.431Z,96733.19
2024-03-16T09:30:12.355Z,96740.56
2024-03-16T09:32:14.230Z,96758.41
2024-03-16T09:34:16.022Z,96752.56
2024-03-16T09:36:17.729Z,96751.50
2024-03-16T09:38:19.394Z,96749.16
2024-03-16T09:40:21.211Z,96756.81
2024-03-16T09:42:22.964Z,96760.28
